sensor_id;sensor_type;location;lat;lon;timestamp;P1;durP1;ratioP1;P2;durP2;ratioP2
53062;SDS011;40529;52.172;10.548;2022-11-18T00:00:51;44.47;;;23.23;;
53062;SDS011;40529;52.172;10.548;2022-11-18T00:03:17;50.38;;;23.13;;
53062;SDS011;40529;52.172;10.548;2022-11-18T00:05:53;45.63;;;21.70;;
53062;SDS011;40529;52.172;10.548;2022-11-18T00:08:20;45.63;;;20.67;;
53062;SDS011;40529;52.172;10.548;2022-11-18T00:10:46;48.75;;;21.73;;
53062;SDS011;40529;52.172;10.548;2022-11-18T00:13:12;48.42;;;21.42;;
53062;SDS011;40529;52.172;10.548;2022-11-18T00:16:01;43.75;;;20.38;;
53062;SDS011;40529;52.172;10.548;2022-11-18T00:18:27;46.47;;;21.35;;
53062;SDS011;40529;52.172;10.548;2022-11-18T00:20:53;44.22;;;21.60;;
53062;SDS011;40529;52.172;10.548;2022-11-18T00:23:19;44.47;;;21.25;;
53062;SDS011;40529;52.172;10.548;2022-11-18T00:25:46;45.50;;;21.52;;
53062;SDS011;40529;52.172;10.548;2022-11-18T00:28:12;41.08;;;20.40;;
53062;SDS011;40529;52.172;10.548;2022-11-18T00:30:38;43.38;;;20.90;;
53062;SDS011;40529;52.172;10.548;2022-11-18T00:33:04;40.83;;;20.40;;
53062;SDS011;40529;52.172;10.548;2022-11-18T00:35:30;44.20;;;20.45;;
53062;SDS011;40529;52.172;10.548;2022-11-18T00:37:56;38.08;;;19.35;;
53062;SDS011;40529;52.172;10.548;2022-11-18T00:40:22;37.33;;;18.85;;
53062;SDS011;40529;52.172;10.548;2022-11-18T00:42:50;33.83;;;17.73;;
53062;SDS011;40529;52.172;10.548;2022-11-18T00:45:21;36.03;;;18.80;;
53062;SDS011;40529;52.172;10.548;2022-11-18T00:47:48;34.53;;;17.02;;
53062;SDS011;40529;52.172;10.548;2022-11-18T00:50:14;32.15;;;16.65;;
53062;SDS011;40529;52.172;10.548;2022-11-18T00:52:41;33.08;;;16.60;;
53062;SDS011;40529;52.172;10.548;2022-11-18T00:55:08;29.55;;;15.68;;
53062;SDS011;40529;52.172;10.548;2022-11-18T00:57:34;28.33;;;16.27;;
53062;SDS011;40529;52.172;10.548;2022-11-18T01:00:01;33.33;;;16.67;;
53062;SDS011;40529;52.172;10.548;2022-11-18T01:02:28;29.30;;;15.63;;
53062;SDS011;40529;52.172;10.548;2022-11-18T01:04:54;31.85;;;16.50;;
53062;SDS011;40529;52.172;10.548;2022-11-18T01:07:20;32.05;;;17.10;;
53062;SDS011;40529;52.172;10.548;2022-11-18T01:09:46;29.33;;;15.88;;
53062;SDS011;40529;52.172;10.548;2022-11-18T01:12:12;31.33;;;16.33;;
53062;SDS011;40529;52.172;10.548;2022-11-18T01:14:57;32.30;;;16.10;;
53062;SDS011;40529;52.172;10.548;2022-11-18T01:17:23;29.52;;;16.13;;
53062;SDS011;40529;52.172;10.548;2022-11-18T01:19:49;33.30;;;16.50;;
53062;SDS011;40529;52.172;10.548;2022-11-18T01:22:15;29.83;;;15.60;;
53062;SDS011;40529;52.172;10.548;2022-11-18T01:24:42;32.00;;;15.95;;
53062;SDS011;40529;52.172;10.548;2022-11-18T01:27:08;32.80;;;16.08;;
53062;SDS011;40529;52.172;10.548;2022-11-18T01:29:34;32.20;;;16.13;;
53062;SDS011;40529;52.172;10.548;2022-11-18T01:32:01;32.60;;;16.55;;
53062;SDS011;40529;52.172;10.548;2022-11-18T01:34:27;32.72;;;17.48;;
53062;SDS011;40529;52.172;10.548;2022-11-18T01:36:56;33.30;;;15.30;;
53062;SDS011;40529;52.172;10.548;2022-11-18T01:39:22;33.22;;;15.98;;
53062;SDS011;40529;52.172;10.548;2022-11-18T01:41:48;33.10;;;16.52;;
53062;SDS011;40529;52.172;10.548;2022-11-18T01:46:59;30.40;;;15.50;;
53062;SDS011;40529;52.172;10.548;2022-11-18T01:49:25;30.98;;;15.43;;
53062;SDS011;40529;52.172;10.548;2022-11-18T01:51:54;31.83;;;16.50;;
53062;SDS011;40529;52.172;10.548;2022-11-18T01:54:24;30.08;;;15.10;;
53062;SDS011;40529;52.172;10.548;2022-11-18T01:56:53;29.63;;;15.18;;
53062;SDS011;40529;52.172;10.548;2022-11-18T01:59:21;30.63;;;15.98;;
53062;SDS011;40529;52.172;10.548;2022-11-18T02:01:49;32.38;;;16.08;;
53062;SDS011;40529;52.172;10.548;2022-11-18T02:04:15;30.73;;;16.00;;
53062;SDS011;40529;52.172;10.548;2022-11-18T02:06:42;33.97;;;16.20;;
53062;SDS011;40529;52.172;10.548;2022-11-18T02:09:10;31.90;;;15.82;;
53062;SDS011;40529;52.172;10.548;2022-11-18T02:11:37;31.45;;;16.40;;
53062;SDS011;40529;52.172;10.548;2022-11-18T02:14:16;30.38;;;15.45;;
53062;SDS011;40529;52.172;10.548;2022-11-18T02:24:43;34.50;;;17.75;;
53062;SDS011;40529;52.172;10.548;2022-11-18T02:32:16;36.22;;;17.83;;
53062;SDS011;40529;52.172;10.548;2022-11-18T02:35:05;34.80;;;17.00;;
53062;SDS011;40529;52.172;10.548;2022-11-18T02:37:34;35.10;;;17.10;;
53062;SDS011;40529;52.172;10.548;2022-11-18T02:40:16;37.05;;;17.40;;
53062;SDS011;40529;52.172;10.548;2022-11-18T02:42:44;35.10;;;16.88;;
53062;SDS011;40529;52.172;10.548;2022-11-18T02:45:14;33.33;;;16.70;;
53062;SDS011;40529;52.172;10.548;2022-11-18T02:47:42;30.52;;;16.33;;
53062;SDS011;40529;52.172;10.548;2022-11-18T02:50:10;36.63;;;17.52;;
53062;SDS011;40529;52.172;10.548;2022-11-18T02:52:37;36.05;;;16.80;;
53062;SDS011;40529;52.172;10.548;2022-11-18T02:55:06;38.95;;;17.83;;
53062;SDS011;40529;52.172;10.548;2022-11-18T02:57:32;37.08;;;17.20;;
53062;SDS011;40529;52.172;10.548;2022-11-18T02:59:58;33.42;;;16.25;;
53062;SDS011;40529;52.172;10.548;2022-11-18T03:02:25;35.00;;;16.80;;
53062;SDS011;40529;52.172;10.548;2022-11-18T03:04:52;37.03;;;17.00;;
53062;SDS011;40529;52.172;10.548;2022-11-18T03:09:46;39.00;;;17.70;;
53062;SDS011;40529;52.172;10.548;2022-11-18T03:17:27;39.03;;;17.90;;
53062;SDS011;40529;52.172;10.548;2022-11-18T03:24:55;33.70;;;17.05;;
53062;SDS011;40529;52.172;10.548;2022-11-18T03:27:35;34.47;;;17.80;;
53062;SDS011;40529;52.172;10.548;2022-11-18T03:30:03;36.50;;;17.48;;
53062;SDS011;40529;52.172;10.548;2022-11-18T03:32:31;34.22;;;16.92;;
53062;SDS011;40529;52.172;10.548;2022-11-18T03:35:00;32.35;;;17.30;;
53062;SDS011;40529;52.172;10.548;2022-11-18T03:37:29;34.22;;;16.92;;
53062;SDS011;40529;52.172;10.548;2022-11-18T03:39:59;34.28;;;16.40;;
53062;SDS011;40529;52.172;10.548;2022-11-18T03:42:28;36.60;;;17.15;;
53062;SDS011;40529;52.172;10.548;2022-11-18T03:45:02;35.40;;;17.38;;
53062;SDS011;40529;52.172;10.548;2022-11-18T03:47:31;38.20;;;18.45;;
53062;SDS011;40529;52.172;10.548;2022-11-18T03:50:07;39.70;;;19.58;;
53062;SDS011;40529;52.172;10.548;2022-11-18T03:52:36;41.30;;;20.20;;
53062;SDS011;40529;52.172;10.548;2022-11-18T03:55:05;42.72;;;19.20;;
53062;SDS011;40529;52.172;10.548;2022-11-18T03:57:45;38.97;;;18.98;;
53062;SDS011;40529;52.172;10.548;2022-11-18T04:00:14;42.75;;;20.02;;
53062;SDS011;40529;52.172;10.548;2022-11-18T04:02:41;42.22;;;20.50;;
53062;SDS011;40529;52.172;10.548;2022-11-18T04:05:08;39.03;;;18.67;;
53062;SDS011;40529;52.172;10.548;2022-11-18T04:07:43;43.10;;;19.45;;
53062;SDS011;40529;52.172;10.548;2022-11-18T04:10:15;38.75;;;19.58;;
53062;SDS011;40529;52.172;10.548;2022-11-18T04:12:43;43.10;;;19.05;;
53062;SDS011;40529;52.172;10.548;2022-11-18T04:15:10;40.97;;;18.95;;
53062;SDS011;40529;52.172;10.548;2022-11-18T04:17:36;40.58;;;19.63;;
53062;SDS011;40529;52.172;10.548;2022-11-18T04:20:02;38.63;;;18.20;;
53062;SDS011;40529;52.172;10.548;2022-11-18T04:22:28;39.60;;;18.75;;
53062;SDS011;40529;52.172;10.548;2022-11-18T04:24:54;39.20;;;19.67;;
53062;SDS011;40529;52.172;10.548;2022-11-18T04:27:20;39.45;;;18.38;;
53062;SDS011;40529;52.172;10.548;2022-11-18T04:29:46;42.35;;;19.15;;
53062;SDS011;40529;52.172;10.548;2022-11-18T04:32:12;43.53;;;18.35;;
53062;SDS011;40529;52.172;10.548;2022-11-18T04:34:38;44.88;;;19.45;;
53062;SDS011;40529;52.172;10.548;2022-11-18T04:37:04;38.55;;;18.17;;
53062;SDS011;40529;52.172;10.548;2022-11-18T04:39:30;43.00;;;18.65;;
53062;SDS011;40529;52.172;10.548;2022-11-18T04:41:56;46.22;;;19.45;;
53062;SDS011;40529;52.172;10.548;2022-11-18T04:44:26;41.33;;;18.42;;
53062;SDS011;40529;52.172;10.548;2022-11-18T04:46:53;37.83;;;17.92;;
53062;SDS011;40529;52.172;10.548;2022-11-18T04:49:19;42.75;;;18.88;;
53062;SDS011;40529;52.172;10.548;2022-11-18T04:51:46;42.88;;;18.63;;
53062;SDS011;40529;52.172;10.548;2022-11-18T04:54:12;42.38;;;19.20;;
53062;SDS011;40529;52.172;10.548;2022-11-18T04:56:38;42.92;;;19.17;;
53062;SDS011;40529;52.172;10.548;2022-11-18T04:59:05;43.38;;;19.67;;
53062;SDS011;40529;52.172;10.548;2022-11-18T05:01:31;43.45;;;17.98;;
53062;SDS011;40529;52.172;10.548;2022-11-18T05:04:00;43.70;;;19.65;;
53062;SDS011;40529;52.172;10.548;2022-11-18T05:06:27;49.90;;;19.75;;
53062;SDS011;40529;52.172;10.548;2022-11-18T05:08:53;46.72;;;19.73;;
53062;SDS011;40529;52.172;10.548;2022-11-18T05:11:19;43.88;;;20.70;;
53062;SDS011;40529;52.172;10.548;2022-11-18T05:14:04;45.17;;;19.67;;
53062;SDS011;40529;52.172;10.548;2022-11-18T05:16:30;42.15;;;19.35;;
53062;SDS011;40529;52.172;10.548;2022-11-18T05:18:56;40.47;;;18.58;;
53062;SDS011;40529;52.172;10.548;2022-11-18T05:21:22;38.83;;;18.90;;
53062;SDS011;40529;52.172;10.548;2022-11-18T05:23:48;38.38;;;18.35;;
53062;SDS011;40529;52.172;10.548;2022-11-18T05:26:14;39.92;;;18.55;;
53062;SDS011;40529;52.172;10.548;2022-11-18T05:28:40;35.47;;;18.02;;
53062;SDS011;40529;52.172;10.548;2022-11-18T05:31:08;42.53;;;19.15;;
53062;SDS011;40529;52.172;10.548;2022-11-18T05:33:34;36.03;;;17.55;;
53062;SDS011;40529;52.172;10.548;2022-11-18T05:36:04;38.60;;;18.27;;
53062;SDS011;40529;52.172;10.548;2022-11-18T05:38:31;36.75;;;17.08;;
53062;SDS011;40529;52.172;10.548;2022-11-18T05:40:57;37.20;;;17.17;;
53062;SDS011;40529;52.172;10.548;2022-11-18T05:43:23;38.78;;;18.10;;
53062;SDS011;40529;52.172;10.548;2022-11-18T05:45:50;35.17;;;17.15;;
53062;SDS011;40529;52.172;10.548;2022-11-18T05:48:16;36.38;;;18.13;;
53062;SDS011;40529;52.172;10.548;2022-11-18T05:50:44;39.20;;;18.02;;
53062;SDS011;40529;52.172;10.548;2022-11-18T05:53:10;41.35;;;18.05;;
53062;SDS011;40529;52.172;10.548;2022-11-18T05:58:21;35.28;;;17.10;;
53062;SDS011;40529;52.172;10.548;2022-11-18T06:00:48;36.67;;;16.73;;
53062;SDS011;40529;52.172;10.548;2022-11-18T06:03:17;45.60;;;19.42;;
53062;SDS011;40529;52.172;10.548;2022-11-18T06:05:45;39.35;;;17.00;;
53062;SDS011;40529;52.172;10.548;2022-11-18T06:08:11;41.65;;;17.38;;
53062;SDS011;40529;52.172;10.548;2022-11-18T06:10:38;40.40;;;17.85;;
53062;SDS011;40529;52.172;10.548;2022-11-18T06:13:07;40.05;;;18.58;;
53062;SDS011;40529;52.172;10.548;2022-11-18T06:15:36;37.90;;;16.88;;
53062;SDS011;40529;52.172;10.548;2022-11-18T06:18:04;35.15;;;16.98;;
53062;SDS011;40529;52.172;10.548;2022-11-18T06:20:31;37.10;;;17.10;;
53062;SDS011;40529;52.172;10.548;2022-11-18T06:22:58;40.78;;;18.40;;
53062;SDS011;40529;52.172;10.548;2022-11-18T06:25:25;37.47;;;16.52;;
53062;SDS011;40529;52.172;10.548;2022-11-18T06:27:53;36.83;;;17.20;;
53062;SDS011;40529;52.172;10.548;2022-11-18T06:30:21;36.90;;;17.33;;
53062;SDS011;40529;52.172;10.548;2022-11-18T06:32:47;42.10;;;18.25;;
53062;SDS011;40529;52.172;10.548;2022-11-18T06:35:13;35.85;;;16.95;;
53062;SDS011;40529;52.172;10.548;2022-11-18T06:37:39;38.42;;;16.95;;
53062;SDS011;40529;52.172;10.548;2022-11-18T06:40:05;37.00;;;16.67;;
53062;SDS011;40529;52.172;10.548;2022-11-18T06:42:32;40.60;;;17.75;;
53062;SDS011;40529;52.172;10.548;2022-11-18T06:45:16;36.50;;;16.90;;
53062;SDS011;40529;52.172;10.548;2022-11-18T06:47:42;38.67;;;17.50;;
53062;SDS011;40529;52.172;10.548;2022-11-18T06:50:08;40.70;;;18.15;;
53062;SDS011;40529;52.172;10.548;2022-11-18T06:52:34;39.17;;;17.02;;
53062;SDS011;40529;52.172;10.548;2022-11-18T06:55:00;37.95;;;18.08;;
53062;SDS011;40529;52.172;10.548;2022-11-18T06:57:27;40.47;;;17.92;;
53062;SDS011;40529;52.172;10.548;2022-11-18T06:59:53;39.42;;;17.52;;
53062;SDS011;40529;52.172;10.548;2022-11-18T07:02:19;40.72;;;17.15;;
53062;SDS011;40529;52.172;10.548;2022-11-18T07:04:45;38.95;;;16.70;;
53062;SDS011;40529;52.172;10.548;2022-11-18T07:07:11;41.50;;;16.95;;
53062;SDS011;40529;52.172;10.548;2022-11-18T07:09:37;37.70;;;16.38;;
53062;SDS011;40529;52.172;10.548;2022-11-18T07:12:04;39.45;;;17.10;;
53062;SDS011;40529;52.172;10.548;2022-11-18T07:14:30;37.30;;;18.00;;
53062;SDS011;40529;52.172;10.548;2022-11-18T07:16:56;36.08;;;17.05;;
53062;SDS011;40529;52.172;10.548;2022-11-18T07:19:22;37.88;;;17.35;;
53062;SDS011;40529;52.172;10.548;2022-11-18T07:21:48;34.78;;;16.23;;
53062;SDS011;40529;52.172;10.548;2022-11-18T07:24:15;31.15;;;14.02;;
53062;SDS011;40529;52.172;10.548;2022-11-18T07:26:41;30.73;;;15.07;;
53062;SDS011;40529;52.172;10.548;2022-11-18T07:29:07;33.08;;;14.95;;
53062;SDS011;40529;52.172;10.548;2022-11-18T07:31:34;32.58;;;14.95;;
53062;SDS011;40529;52.172;10.548;2022-11-18T07:34:04;33.05;;;15.45;;
53062;SDS011;40529;52.172;10.548;2022-11-18T07:36:30;34.25;;;15.77;;
53062;SDS011;40529;52.172;10.548;2022-11-18T07:39:00;30.05;;;15.45;;
53062;SDS011;40529;52.172;10.548;2022-11-18T07:41:28;35.78;;;15.73;;
53062;SDS011;40529;52.172;10.548;2022-11-18T07:43:55;33.03;;;15.48;;
53062;SDS011;40529;52.172;10.548;2022-11-18T07:46:22;32.65;;;14.90;;
53062;SDS011;40529;52.172;10.548;2022-11-18T07:48:49;31.13;;;15.23;;
53062;SDS011;40529;52.172;10.548;2022-11-18T07:51:16;33.50;;;15.38;;
53062;SDS011;40529;52.172;10.548;2022-11-18T07:53:43;34.25;;;15.32;;
53062;SDS011;40529;52.172;10.548;2022-11-18T07:56:09;34.30;;;16.00;;
53062;SDS011;40529;52.172;10.548;2022-11-18T07:58:36;33.63;;;16.20;;
53062;SDS011;40529;52.172;10.548;2022-11-18T08:01:06;32.00;;;15.85;;
53062;SDS011;40529;52.172;10.548;2022-11-18T08:03:32;31.17;;;15.57;;
53062;SDS011;40529;52.172;10.548;2022-11-18T08:05:58;30.73;;;15.32;;
53062;SDS011;40529;52.172;10.548;2022-11-18T08:08:24;36.30;;;15.52;;
53062;SDS011;40529;52.172;10.548;2022-11-18T08:10:53;36.38;;;16.90;;
53062;SDS011;40529;52.172;10.548;2022-11-18T08:13:20;37.58;;;16.90;;
53062;SDS011;40529;52.172;10.548;2022-11-18T08:15:46;35.47;;;15.75;;
53062;SDS011;40529;52.172;10.548;2022-11-18T08:18:12;38.33;;;17.40;;
53062;SDS011;40529;52.172;10.548;2022-11-18T08:20:38;31.25;;;14.98;;
53062;SDS011;40529;52.172;10.548;2022-11-18T08:23:04;33.63;;;15.43;;
53062;SDS011;40529;52.172;10.548;2022-11-18T08:25:30;34.83;;;16.40;;
53062;SDS011;40529;52.172;10.548;2022-11-18T08:27:57;33.38;;;16.88;;
53062;SDS011;40529;52.172;10.548;2022-11-18T08:30:23;34.47;;;16.40;;
53062;SDS011;40529;52.172;10.548;2022-11-18T08:32:49;41.00;;;17.83;;
53062;SDS011;40529;52.172;10.548;2022-11-18T08:35:15;32.85;;;15.35;;
53062;SDS011;40529;52.172;10.548;2022-11-18T08:37:41;34.72;;;17.40;;
53062;SDS011;40529;52.172;10.548;2022-11-18T08:40:07;35.20;;;17.00;;
53062;SDS011;40529;52.172;10.548;2022-11-18T08:42:33;37.63;;;17.80;;
53062;SDS011;40529;52.172;10.548;2022-11-18T08:45:01;36.92;;;16.60;;
53062;SDS011;40529;52.172;10.548;2022-11-18T08:47:29;37.75;;;18.23;;
53062;SDS011;40529;52.172;10.548;2022-11-18T08:49:55;35.63;;;17.90;;
53062;SDS011;40529;52.172;10.548;2022-11-18T08:52:21;35.53;;;17.35;;
53062;SDS011;40529;52.172;10.548;2022-11-18T08:54:47;36.58;;;17.58;;
53062;SDS011;40529;52.172;10.548;2022-11-18T08:57:13;35.58;;;17.23;;
53062;SDS011;40529;52.172;10.548;2022-11-18T08:59:39;38.65;;;17.45;;
53062;SDS011;40529;52.172;10.548;2022-11-18T09:02:11;40.88;;;18.40;;
53062;SDS011;40529;52.172;10.548;2022-11-18T09:04:37;37.65;;;17.88;;
53062;SDS011;40529;52.172;10.548;2022-11-18T09:07:03;37.63;;;16.90;;
53062;SDS011;40529;52.172;10.548;2022-11-18T09:09:29;34.28;;;16.27;;
53062;SDS011;40529;52.172;10.548;2022-11-18T09:11:55;34.10;;;17.27;;
53062;SDS011;40529;52.172;10.548;2022-11-18T09:14:21;36.35;;;17.73;;
53062;SDS011;40529;52.172;10.548;2022-11-18T09:16:47;32.30;;;15.77;;
53062;SDS011;40529;52.172;10.548;2022-11-18T09:19:14;36.50;;;16.45;;
53062;SDS011;40529;52.172;10.548;2022-11-18T09:21:40;35.13;;;16.65;;
53062;SDS011;40529;52.172;10.548;2022-11-18T09:24:06;31.65;;;16.40;;
53062;SDS011;40529;52.172;10.548;2022-11-18T09:26:35;32.60;;;16.52;;
53062;SDS011;40529;52.172;10.548;2022-11-18T09:29:01;34.15;;;17.13;;
53062;SDS011;40529;52.172;10.548;2022-11-18T09:31:27;33.67;;;15.90;;
53062;SDS011;40529;52.172;10.548;2022-11-18T09:33:53;30.92;;;15.52;;
53062;SDS011;40529;52.172;10.548;2022-11-18T09:36:20;30.38;;;16.17;;
53062;SDS011;40529;52.172;10.548;2022-11-18T09:38:47;30.35;;;16.52;;
53062;SDS011;40529;52.172;10.548;2022-11-18T09:43:46;32.08;;;15.82;;
53062;SDS011;40529;52.172;10.548;2022-11-18T09:48:57;31.80;;;15.65;;
53062;SDS011;40529;52.172;10.548;2022-11-18T09:51:39;31.83;;;15.68;;
53062;SDS011;40529;52.172;10.548;2022-11-18T09:54:10;29.83;;;14.45;;
53062;SDS011;40529;52.172;10.548;2022-11-18T09:56:38;31.90;;;15.57;;
53062;SDS011;40529;52.172;10.548;2022-11-18T09:59:04;32.33;;;15.77;;
53062;SDS011;40529;52.172;10.548;2022-11-18T10:01:31;34.88;;;16.75;;
53062;SDS011;40529;52.172;10.548;2022-11-18T10:03:57;32.38;;;15.95;;
53062;SDS011;40529;52.172;10.548;2022-11-18T10:06:24;28.38;;;14.77;;
53062;SDS011;40529;52.172;10.548;2022-11-18T10:14:15;32.40;;;15.93;;
53062;SDS011;40529;52.172;10.548;2022-11-18T10:24:21;32.20;;;15.37;;
53062;SDS011;40529;52.172;10.548;2022-11-18T10:26:53;30.75;;;15.35;;
53062;SDS011;40529;52.172;10.548;2022-11-18T10:29:20;29.95;;;15.32;;
53062;SDS011;40529;52.172;10.548;2022-11-18T10:31:57;30.20;;;16.52;;
53062;SDS011;40529;52.172;10.548;2022-11-18T10:34:24;29.75;;;16.27;;
53062;SDS011;40529;52.172;10.548;2022-11-18T10:39:25;29.27;;;14.52;;
53062;SDS011;40529;52.172;10.548;2022-11-18T10:41:52;25.88;;;13.30;;
53062;SDS011;40529;52.172;10.548;2022-11-18T10:46:54;26.13;;;13.65;;
53062;SDS011;40529;52.172;10.548;2022-11-18T10:49:20;21.17;;;11.80;;
53062;SDS011;40529;52.172;10.548;2022-11-18T10:51:47;22.92;;;11.32;;
53062;SDS011;40529;52.172;10.548;2022-11-18T10:54:15;22.30;;;11.98;;
53062;SDS011;40529;52.172;10.548;2022-11-18T10:59:32;21.70;;;11.83;;
53062;SDS011;40529;52.172;10.548;2022-11-18T11:02:00;23.80;;;12.48;;
53062;SDS011;40529;52.172;10.548;2022-11-18T11:04:28;22.30;;;11.90;;
53062;SDS011;40529;52.172;10.548;2022-11-18T11:06:55;21.10;;;11.85;;
53062;SDS011;40529;52.172;10.548;2022-11-18T11:09:25;27.17;;;13.50;;
53062;SDS011;40529;52.172;10.548;2022-11-18T11:14:37;20.58;;;10.07;;
53062;SDS011;40529;52.172;10.548;2022-11-18T11:17:12;25.67;;;12.68;;
53062;SDS011;40529;52.172;10.548;2022-11-18T11:22:11;25.75;;;13.23;;
53062;SDS011;40529;52.172;10.548;2022-11-18T11:24:37;28.02;;;13.57;;
53062;SDS011;40529;52.172;10.548;2022-11-18T11:30:01;25.25;;;13.82;;
53062;SDS011;40529;52.172;10.548;2022-11-18T11:40:22;26.73;;;14.32;;
53062;SDS011;40529;52.172;10.548;2022-11-18T11:50:55;24.27;;;12.10;;
53062;SDS011;40529;52.172;10.548;2022-11-18T12:00:58;21.48;;;11.23;;
53062;SDS011;40529;52.172;10.548;2022-11-18T12:03:40;28.33;;;14.98;;
53062;SDS011;40529;52.172;10.548;2022-11-18T12:06:08;28.73;;;15.88;;
53062;SDS011;40529;52.172;10.548;2022-11-18T12:08:34;30.00;;;15.80;;
53062;SDS011;40529;52.172;10.548;2022-11-18T12:11:16;28.08;;;15.40;;
53062;SDS011;40529;52.172;10.548;2022-11-18T12:13:57;32.00;;;16.13;;
53062;SDS011;40529;52.172;10.548;2022-11-18T12:19:14;28.58;;;14.60;;
53062;SDS011;40529;52.172;10.548;2022-11-18T12:26:46;23.88;;;13.50;;
53062;SDS011;40529;52.172;10.548;2022-11-18T12:31:41;23.90;;;13.73;;
53062;SDS011;40529;52.172;10.548;2022-11-18T12:36:52;22.38;;;12.55;;
53062;SDS011;40529;52.172;10.548;2022-11-18T12:41:55;25.67;;;12.65;;
53062;SDS011;40529;52.172;10.548;2022-11-18T12:44:40;24.80;;;13.27;;
53062;SDS011;40529;52.172;10.548;2022-11-18T12:47:54;22.17;;;11.95;;
53062;SDS011;40529;52.172;10.548;2022-11-18T12:54:54;19.67;;;10.10;;
53062;SDS011;40529;52.172;10.548;2022-11-18T12:57:26;24.67;;;13.05;;
53062;SDS011;40529;52.172;10.548;2022-11-18T12:59:52;23.90;;;13.13;;
53062;SDS011;40529;52.172;10.548;2022-11-18T13:04:48;27.38;;;14.70;;
53062;SDS011;40529;52.172;10.548;2022-11-18T13:07:27;25.58;;;13.98;;
53062;SDS011;40529;52.172;10.548;2022-11-18T13:10:18;27.75;;;14.98;;
53062;SDS011;40529;52.172;10.548;2022-11-18T13:12:46;26.63;;;14.25;;
53062;SDS011;40529;52.172;10.548;2022-11-18T13:15:13;25.65;;;13.88;;
53062;SDS011;40529;52.172;10.548;2022-11-18T13:18:06;25.65;;;14.43;;
53062;SDS011;40529;52.172;10.548;2022-11-18T13:20:33;28.38;;;14.98;;
53062;SDS011;40529;52.172;10.548;2022-11-18T13:23:14;28.92;;;15.80;;
53062;SDS011;40529;52.172;10.548;2022-11-18T13:26:05;35.05;;;18.13;;
53062;SDS011;40529;52.172;10.548;2022-11-18T13:33:43;35.38;;;18.30;;
53062;SDS011;40529;52.172;10.548;2022-11-18T13:36:16;41.17;;;19.48;;
53062;SDS011;40529;52.172;10.548;2022-11-18T13:41:21;35.10;;;19.05;;
53062;SDS011;40529;52.172;10.548;2022-11-18T13:44:08;38.47;;;19.65;;
53062;SDS011;40529;52.172;10.548;2022-11-18T13:46:36;37.65;;;20.33;;
53062;SDS011;40529;52.172;10.548;2022-11-18T13:49:03;40.92;;;21.05;;
53062;SDS011;40529;52.172;10.548;2022-11-18T13:51:29;39.95;;;21.00;;
53062;SDS011;40529;52.172;10.548;2022-11-18T13:53:55;44.25;;;21.38;;
53062;SDS011;40529;52.172;10.548;2022-11-18T13:56:23;45.33;;;21.30;;
53062;SDS011;40529;52.172;10.548;2022-11-18T13:58:54;38.35;;;20.55;;
53062;SDS011;40529;52.172;10.548;2022-11-18T14:01:21;39.17;;;21.05;;
53062;SDS011;40529;52.172;10.548;2022-11-18T14:03:52;39.78;;;21.13;;
53062;SDS011;40529;52.172;10.548;2022-11-18T14:06:26;40.85;;;20.67;;
53062;SDS011;40529;52.172;10.548;2022-11-18T14:09:02;39.22;;;21.30;;
53062;SDS011;40529;52.172;10.548;2022-11-18T14:11:41;41.42;;;20.40;;
53062;SDS011;40529;52.172;10.548;2022-11-18T14:14:11;40.17;;;21.75;;
53062;SDS011;40529;52.172;10.548;2022-11-18T14:16:51;43.42;;;21.58;;
53062;SDS011;40529;52.172;10.548;2022-11-18T14:19:28;38.80;;;20.02;;
53062;SDS011;40529;52.172;10.548;2022-11-18T14:22:01;40.10;;;20.42;;
53062;SDS011;40529;52.172;10.548;2022-11-18T14:24:27;43.65;;;21.85;;
53062;SDS011;40529;52.172;10.548;2022-11-18T14:26:53;38.83;;;21.35;;
53062;SDS011;40529;52.172;10.548;2022-11-18T14:29:20;41.28;;;22.27;;
53062;SDS011;40529;52.172;10.548;2022-11-18T14:34:31;41.45;;;22.55;;
53062;SDS011;40529;52.172;10.548;2022-11-18T14:36:57;47.33;;;21.88;;
53062;SDS011;40529;52.172;10.548;2022-11-18T14:39:30;41.67;;;21.63;;
53062;SDS011;40529;52.172;10.548;2022-11-18T14:41:57;44.78;;;22.63;;
53062;SDS011;40529;52.172;10.548;2022-11-18T14:44:24;41.67;;;21.63;;
53062;SDS011;40529;52.172;10.548;2022-11-18T14:46:58;42.22;;;22.45;;
53062;SDS011;40529;52.172;10.548;2022-11-18T14:49:25;41.63;;;21.42;;
53062;SDS011;40529;52.172;10.548;2022-11-18T14:51:52;42.40;;;22.13;;
53062;SDS011;40529;52.172;10.548;2022-11-18T14:54:19;48.05;;;23.00;;
53062;SDS011;40529;52.172;10.548;2022-11-18T14:56:46;46.47;;;24.38;;
53062;SDS011;40529;52.172;10.548;2022-11-18T14:59:14;42.08;;;22.77;;
53062;SDS011;40529;52.172;10.548;2022-11-18T15:01:41;44.92;;;23.30;;
53062;SDS011;40529;52.172;10.548;2022-11-18T15:04:08;40.67;;;21.50;;
53062;SDS011;40529;52.172;10.548;2022-11-18T15:06:34;46.08;;;23.92;;
53062;SDS011;40529;52.172;10.548;2022-11-18T15:09:00;45.28;;;23.10;;
53062;SDS011;40529;52.172;10.548;2022-11-18T15:11:26;48.22;;;23.58;;
53062;SDS011;40529;52.172;10.548;2022-11-18T15:13:52;45.88;;;24.90;;
53062;SDS011;40529;52.172;10.548;2022-11-18T15:16:20;45.63;;;25.35;;
53062;SDS011;40529;52.172;10.548;2022-11-18T15:18:47;46.75;;;24.00;;
53062;SDS011;40529;52.172;10.548;2022-11-18T15:21:13;43.17;;;24.00;;
53062;SDS011;40529;52.172;10.548;2022-11-18T15:23:39;48.47;;;24.27;;
53062;SDS011;40529;52.172;10.548;2022-11-18T15:28:41;44.60;;;24.02;;
53062;SDS011;40529;52.172;10.548;2022-11-18T15:31:08;41.30;;;23.52;;
53062;SDS011;40529;52.172;10.548;2022-11-18T15:33:34;41.75;;;22.85;;
53062;SDS011;40529;52.172;10.548;2022-11-18T15:36:00;40.40;;;23.23;;
53062;SDS011;40529;52.172;10.548;2022-11-18T15:38:26;44.05;;;23.05;;
53062;SDS011;40529;52.172;10.548;2022-11-18T15:40:52;36.15;;;20.33;;
53062;SDS011;40529;52.172;10.548;2022-11-18T15:43:18;39.20;;;22.13;;
53062;SDS011;40529;52.172;10.548;2022-11-18T15:45:44;38.55;;;21.45;;
53062;SDS011;40529;52.172;10.548;2022-11-18T15:48:10;36.33;;;20.67;;
53062;SDS011;40529;52.172;10.548;2022-11-18T15:50:36;36.90;;;20.77;;
53062;SDS011;40529;52.172;10.548;2022-11-18T15:53:02;37.72;;;20.50;;
53062;SDS011;40529;52.172;10.548;2022-11-18T15:55:28;37.70;;;21.35;;
53062;SDS011;40529;52.172;10.548;2022-11-18T15:57:55;39.47;;;20.52;;
53062;SDS011;40529;52.172;10.548;2022-11-18T16:00:21;36.03;;;20.67;;
53062;SDS011;40529;52.172;10.548;2022-11-18T16:02:47;38.65;;;21.00;;
53062;SDS011;40529;52.172;10.548;2022-11-18T16:05:13;40.03;;;21.70;;
53062;SDS011;40529;52.172;10.548;2022-11-18T16:07:39;39.13;;;21.35;;
53062;SDS011;40529;52.172;10.548;2022-11-18T16:10:05;37.40;;;21.65;;
53062;SDS011;40529;52.172;10.548;2022-11-18T16:12:50;39.72;;;21.75;;
53062;SDS011;40529;52.172;10.548;2022-11-18T16:15:16;34.90;;;20.38;;
53062;SDS011;40529;52.172;10.548;2022-11-18T16:18:01;33.25;;;17.92;;
53062;SDS011;40529;52.172;10.548;2022-11-18T16:20:28;29.25;;;16.95;;